createdAt,value
2018-01-25T00:02:14.759Z,9.30
2018-01-25T00:04:42.494Z,9.31
2018-01-25T00:07:10.073Z,9.25
2018-01-25T00:09:37.753Z,9.17
2018-01-25T00:12:05.323Z,9.12
2018-01-25T00:14:33.858Z,9.14
2018-01-25T00:17:01.426Z,9.09
2018-01-25T00:19:28.998Z,9.07
2018-01-25T00:21:56.606Z,9.11
2018-01-25T00:24:24.175Z,9.05
2018-01-25T00:26:51.749Z,9.03
2018-01-25T00:29:19.311Z,9.00
2018-01-25T00:31:46.951Z,9.00
2018-01-25T00:34:14.554Z,8.98
2018-01-25T00:36:42.159Z,9.01
2018-01-25T00:39:09.871Z,8.99
2018-01-25T00:41:37.535Z,8.98
2018-01-25T00:44:05.149Z,8.94
2018-01-25T00:46:32.719Z,8.98
2018-01-25T00:49:00.323Z,9.00
2018-01-25T00:51:27.942Z,8.91
2018-01-25T00:53:55.566Z,8.89
2018-01-25T00:56:23.135Z,8.93
2018-01-25T00:58:50.766Z,8.93
2018-01-25T01:01:18.378Z,8.88
2018-01-25T01:03:45.967Z,9.08
2018-01-25T01:06:13.536Z,9.09
2018-01-25T01:08:41.229Z,9.08
2018-01-25T01:11:08.802Z,9.07
2018-01-25T01:13:36.411Z,9.01
2018-01-25T01:16:04.103Z,9.06
2018-01-25T01:18:31.817Z,9.11
2018-01-25T01:20:59.437Z,9.06
2018-01-25T01:23:27.123Z,9.07
2018-01-25T01:25:54.731Z,9.14
2018-01-25T01:28:22.418Z,9.06
2018-01-25T01:30:50.023Z,9.05
2018-01-25T01:33:17.630Z,9.00
2018-01-25T01:35:45.202Z,9.09
2018-01-25T01:38:12.864Z,9.16
2018-01-25T01:40:40.455Z,9.19
2018-01-25T01:43:08.066Z,9.22
2018-01-25T01:45:35.635Z,9.31
2018-01-25T01:48:03.246Z,9.50
2018-01-25T01:50:30.865Z,9.47
2018-01-25T01:52:58.441Z,9.50
2018-01-25T01:55:26.038Z,9.50
2018-01-25T01:57:53.622Z,9.63
2018-01-25T02:00:21.229Z,9.63
2018-01-25T02:02:48.830Z,9.74
2018-01-25T02:05:16.439Z,9.74
2018-01-25T02:07:44.094Z,9.68
2018-01-25T02:10:11.697Z,9.60
2018-01-25T02:12:39.321Z,9.69
2018-01-25T02:15:06.892Z,9.65
2018-01-25T02:17:34.467Z,9.78
2018-01-25T02:20:02.033Z,9.74
2018-01-25T02:22:29.721Z,9.77
2018-01-25T02:24:57.294Z,9.86
2018-01-25T02:27:24.859Z,9.79
2018-01-25T02:29:52.464Z,9.81
2018-01-25T02:32:20.030Z,9.86
2018-01-25T02:34:47.713Z,9.79
2018-01-25T02:37:15.255Z,9.82
2018-01-25T02:39:42.875Z,9.84
2018-01-25T02:42:10.435Z,9.75
2018-01-25T02:44:37.982Z,9.81
2018-01-25T02:47:05.523Z,9.70
2018-01-25T02:49:33.095Z,9.66
2018-01-25T02:52:00.686Z,9.61
2018-01-25T02:54:28.233Z,9.66
2018-01-25T02:56:55.794Z,9.64
2018-01-25T02:59:23.331Z,9.59
2018-01-25T03:01:50.870Z,9.60
2018-01-25T03:04:18.471Z,9.54
2018-01-25T03:06:46.039Z,9.53
2018-01-25T03:09:13.642Z,9.59
2018-01-25T03:11:41.185Z,9.59
2018-01-25T03:14:08.823Z,9.68
2018-01-25T03:16:36.406Z,9.72
2018-01-25T03:19:03.951Z,9.70
2018-01-25T03:21:31.496Z,9.84
2018-01-25T03:23:59.076Z,9.78
2018-01-25T03:26:26.615Z,9.71
2018-01-25T03:28:54.159Z,9.77
2018-01-25T03:31:21.705Z,9.67
2018-01-25T03:33:49.278Z,9.69
2018-01-25T03:36:16.812Z,9.56
2018-01-25T03:38:44.380Z,9.63
2018-01-25T03:41:11.934Z,9.54
2018-01-25T03:43:39.519Z,9.49
2018-01-25T03:46:07.058Z,9.40
2018-01-25T03:48:34.594Z,9.39
2018-01-25T03:51:02.143Z,9.41
2018-01-25T03:53:29.798Z,9.36
2018-01-25T03:55:57.334Z,9.24
2018-01-25T03:58:24.882Z,9.22
2018-01-25T04:00:52.420Z,9.16
2018-01-25T04:03:19.961Z,9.21
2018-01-25T04:05:48.404Z,9.23
2018-01-25T04:08:15.990Z,9.30
2018-01-25T04:10:43.539Z,9.28
2018-01-25T04:13:11.074Z,9.28
2018-01-25T04:15:38.664Z,9.34
2018-01-25T04:18:06.204Z,9.25
2018-01-25T04:20:33.738Z,9.22
2018-01-25T04:23:01.279Z,9.18
2018-01-25T04:25:28.826Z,9.14
2018-01-25T04:27:56.402Z,9.24
2018-01-25T04:30:24.066Z,9.19
2018-01-25T04:32:51.655Z,9.23
2018-01-25T04:35:19.192Z,9.26
2018-01-25T04:37:46.726Z,9.26
2018-01-25T04:40:14.265Z,9.26
2018-01-25T04:42:41.942Z,9.37
2018-01-25T04:45:09.512Z,9.39
2018-01-25T04:47:37.054Z,9.34
2018-01-25T04:50:04.706Z,9.40
2018-01-25T04:52:32.247Z,9.38
2018-01-25T04:54:59.898Z,9.50
2018-01-25T04:57:27.481Z,9.58
2018-01-25T04:59:55.150Z,9.59
2018-01-25T05:02:22.726Z,9.64
2018-01-25T05:04:50.298Z,9.64
2018-01-25T05:07:17.883Z,9.69
2018-01-25T05:09:45.493Z,9.73
2018-01-25T05:12:13.158Z,9.75
2018-01-25T05:14:40.699Z,9.76
2018-01-25T05:17:13.859Z,9.80
2018-01-25T05:19:41.440Z,9.96
2018-01-25T05:22:08.990Z,9.95
2018-01-25T05:24:36.590Z,9.95
2018-01-25T05:27:04.125Z,9.96
2018-01-25T05:29:31.709Z,10.01
2018-01-25T05:31:59.247Z,10.03
2018-01-25T05:34:26.781Z,9.96
2018-01-25T05:36:54.321Z,9.98
2018-01-25T05:39:21.875Z,10.03
2018-01-25T05:41:49.414Z,9.98
2018-01-25T05:44:16.950Z,9.98
2018-01-25T05:46:44.490Z,10.05
2018-01-25T05:49:12.098Z,10.01
2018-01-25T05:51:39.642Z,9.99
2018-01-25T05:54:07.186Z,9.98
2018-01-25T05:56:34.727Z,9.97
2018-01-25T05:59:02.276Z,10.07
2018-01-25T06:01:29.822Z,10.04
2018-01-25T06:03:57.432Z,10.03
2018-01-25T06:06:25.027Z,10.10
2018-01-25T06:08:52.570Z,10.11
2018-01-25T06:11:20.123Z,10.10
2018-01-25T06:13:47.666Z,10.12
2018-01-25T06:16:15.265Z,10.09
2018-01-25T06:18:42.829Z,10.04
2018-01-25T06:21:10.374Z,10.01
2018-01-25T06:23:37.914Z,9.99
2018-01-25T06:26:05.449Z,9.98
2018-01-25T06:28:32.989Z,10.12
2018-01-25T06:31:00.539Z,10.12
2018-01-25T06:33:28.194Z,10.02
2018-01-25T06:35:55.769Z,10.06
2018-01-25T06:38:23.358Z,10.09
2018-01-25T06:40:50.971Z,10.02
2018-01-25T06:43:18.555Z,10.05
2018-01-25T06:45:46.270Z,10.08
2018-01-25T06:48:13.805Z,10.11
2018-01-25T06:50:41.350Z,10.14
2018-01-25T06:53:08.894Z,10.10
2018-01-25T06:55:36.483Z,10.14
2018-01-25T06:58:04.035Z,10.13
2018-01-25T07:00:31.670Z,10.13
2018-01-25T07:02:59.205Z,10.12
2018-01-25T07:05:26.793Z,10.12
2018-01-25T07:07:54.354Z,10.22
2018-01-25T07:10:22.008Z,10.24
2018-01-25T07:12:49.586Z,10.31
2018-01-25T07:15:17.134Z,10.31
2018-01-25T07:17:44.789Z,10.28
2018-01-25T07:20:12.355Z,10.40
2018-01-25T07:22:40.005Z,10.47
2018-01-25T07:25:07.575Z,10.48
2018-01-25T07:27:35.151Z,10.64
2018-01-25T07:30:02.694Z,10.61
2018-01-25T07:32:30.361Z,10.81
2018-01-25T07:34:57.906Z,10.77
2018-01-25T07:37:25.606Z,10.95
2018-01-25T07:39:53.149Z,10.92
2018-01-25T07:42:20.726Z,10.90
2018-01-25T07:44:48.362Z,10.87
2018-01-25T07:47:15.921Z,10.93
2018-01-25T07:49:43.498Z,11.02
2018-01-25T07:52:11.044Z,10.99
2018-01-25T07:54:38.713Z,10.94
2018-01-25T07:57:06.257Z,10.96
2018-01-25T07:59:33.837Z,10.93
2018-01-25T08:02:01.386Z,10.99
2018-01-25T08:04:28.977Z,11.05
2018-01-25T08:06:56.559Z,11.13
2018-01-25T08:09:24.101Z,11.14
2018-01-25T08:11:51.640Z,11.16
2018-01-25T08:14:19.181Z,11.11
2018-01-25T08:16:49.810Z,11.10
2018-01-25T08:19:17.386Z,11.13
2018-01-25T08:21:44.920Z,11.04
2018-01-25T08:24:12.605Z,11.11
2018-01-25T08:26:40.145Z,11.08
2018-01-25T08:29:07.729Z,11.18
2018-01-25T08:31:36.078Z,11.21
2018-01-25T08:34:03.618Z,11.22
2018-01-25T08:36:31.193Z,11.19
2018-01-25T08:38:58.790Z,11.21
2018-01-25T08:41:33.155Z,11.17
2018-01-25T08:43:53.898Z,11.24
2018-01-25T08:46:21.440Z,11.24
2018-01-25T08:48:49.022Z,11.29
2018-01-25T08:51:16.590Z,11.30
2018-01-25T08:53:44.132Z,11.27
2018-01-25T08:56:11.708Z,11.19
2018-01-25T08:58:39.291Z,11.26
2018-01-25T09:01:06.834Z,11.21
2018-01-25T09:03:34.422Z,11.23
2018-01-25T09:06:02.055Z,11.17
2018-01-25T09:08:29.593Z,11.12
2018-01-25T09:10:57.134Z,11.13
2018-01-25T09:13:24.682Z,11.21
2018-01-25T09:15:52.217Z,11.10
2018-01-25T09:18:19.755Z,11.16
2018-01-25T09:20:47.314Z,11.21
2018-01-25T09:23:14.886Z,11.24
2018-01-25T09:25:42.532Z,11.17
2018-01-25T09:28:10.081Z,11.25
2018-01-25T09:30:37.668Z,11.28
2018-01-25T09:33:05.249Z,11.33
2018-01-25T09:35:32.795Z,11.32
2018-01-25T09:38:00.413Z,11.28
2018-01-25T09:40:28.002Z,11.27
2018-01-25T09:42:55.583Z,11.18
2018-01-25T09:45:23.127Z,11.09
2018-01-25T09:47:50.716Z,11.20
2018-01-25T09:50:18.353Z,11.19
2018-01-25T09:52:45.938Z,11.08
2018-01-25T09:55:14.302Z,11.17
2018-01-25T09:57:41.923Z,11.16
2018-01-25T10:00:09.457Z,11.09
2018-01-25T10:02:37.002Z,11.17
2018-01-25T10:05:04.584Z,11.25
2018-01-25T10:07:32.121Z,11.41
2018-01-25T10:09:59.667Z,11.65
2018-01-25T10:12:27.217Z,11.60
2018-01-25T10:14:54.789Z,11.51
2018-01-25T10:17:22.337Z,11.45
2018-01-25T10:19:49.886Z,11.47
2018-01-25T10:22:17.456Z,11.43
2018-01-25T10:24:45.130Z,11.26
2018-01-25T10:27:12.675Z,11.11
2018-01-25T10:29:40.223Z,11.21
2018-01-25T10:32:07.802Z,11.20
2018-01-25T10:34:35.338Z,11.20
2018-01-25T10:37:02.891Z,11.17
2018-01-25T10:39:30.427Z,11.10
2018-01-25T10:41:57.971Z,10.86
2018-01-25T10:44:25.514Z,10.80
2018-01-25T10:46:53.161Z,10.87
2018-01-25T10:49:20.703Z,10.60
2018-01-25T10:51:48.249Z,10.78
2018-01-25T10:54:15.790Z,10.87
2018-01-25T10:56:43.407Z,10.67
2018-01-25T10:59:10.950Z,10.59
2018-01-25T11:01:44.132Z,10.58
2018-01-25T11:04:11.673Z,10.63
2018-01-25T11:06:39.211Z,10.63
2018-01-25T11:09:06.794Z,10.65
2018-01-25T11:11:35.323Z,10.57
2018-01-25T11:14:02.897Z,10.51
2018-01-25T11:16:30.544Z,10.61
2018-01-25T11:18:58.106Z,10.60
2018-01-25T11:21:25.652Z,10.60
2018-01-25T11:23:53.268Z,10.65
2018-01-25T11:26:20.885Z,10.60
2018-01-25T11:28:48.423Z,10.56
2018-01-25T11:31:15.961Z,10.44
2018-01-25T11:33:43.547Z,10.41
2018-01-25T11:36:11.129Z,10.51
2018-01-25T11:38:38.667Z,10.39
2018-01-25T11:41:06.205Z,10.47
2018-01-25T11:43:33.782Z,10.49
2018-01-25T11:46:01.326Z,10.36
2018-01-25T11:48:28.908Z,10.39
2018-01-25T11:50:56.490Z,10.38
2018-01-25T11:53:24.162Z,10.38
2018-01-25T11:55:51.714Z,10.50
2018-01-25T11:58:19.290Z,10.47
2018-01-25T12:00:46.825Z,10.60
2018-01-25T12:03:14.394Z,10.51
2018-01-25T12:05:41.934Z,10.61
2018-01-25T12:08:09.470Z,10.50
2018-01-25T12:10:37.049Z,10.48
2018-01-25T12:13:04.610Z,10.40
2018-01-25T12:15:32.302Z,10.42
2018-01-25T12:17:59.845Z,10.45
2018-01-25T12:20:27.396Z,10.41
2018-01-25T12:22:54.935Z,10.45
2018-01-25T12:25:22.550Z,10.42
2018-01-25T12:27:50.095Z,10.47
2018-01-25T12:30:17.639Z,10.48
2018-01-25T12:32:45.252Z,10.44
2018-01-25T12:35:12.802Z,10.56
2018-01-25T12:37:40.341Z,10.51
2018-01-25T12:40:07.888Z,10.42
2018-01-25T12:42:35.467Z,10.52
2018-01-25T12:45:03.007Z,10.54
2018-01-25T12:47:30.599Z,10.40
2018-01-25T12:49:58.178Z,10.30
2018-01-25T12:52:26.634Z,10.41
2018-01-25T12:54:54.301Z,10.34
2018-01-25T12:57:21.866Z,10.31
2018-01-25T12:59:49.443Z,10.29
2018-01-25T13:02:17.006Z,10.45
2018-01-25T13:04:44.593Z,10.48
2018-01-25T13:07:12.134Z,10.44
2018-01-25T13:09:39.677Z,10.40
2018-01-25T13:12:07.267Z,10.32
2018-01-25T13:14:34.822Z,10.30
2018-01-25T13:17:02.411Z,10.39
2018-01-25T13:19:30.010Z,10.24
2018-01-25T13:21:57.599Z,10.31
2018-01-25T13:24:25.140Z,10.32
2018-01-25T13:26:52.726Z,10.26
2018-01-25T13:29:20.265Z,10.28
2018-01-25T13:31:47.837Z,10.28
2018-01-25T13:34:15.373Z,10.23
2018-01-25T13:36:42.964Z,10.22
2018-01-25T13:39:10.507Z,10.15
2018-01-25T13:41:38.051Z,10.12
2018-01-25T13:44:05.706Z,10.09
2018-01-25T13:46:33.245Z,9.97
2018-01-25T13:49:00.791Z,9.93
2018-01-25T13:51:28.334Z,9.94
2018-01-25T13:53:55.877Z,9.90
2018-01-25T13:56:23.511Z,9.90
2018-01-25T13:58:51.212Z,9.93
2018-01-25T14:01:18.758Z,9.91
2018-01-25T14:03:46.302Z,9.92
2018-01-25T14:06:13.846Z,9.90
2018-01-25T14:08:41.418Z,9.95
2018-01-25T14:11:08.958Z,10.01
2018-01-25T14:13:36.509Z,10.13
2018-01-25T14:16:04.112Z,10.09
2018-01-25T14:18:31.621Z,10.10
2018-01-25T14:20:59.156Z,9.93
2018-01-25T14:23:26.734Z,9.85
2018-01-25T14:25:54.266Z,9.78
2018-01-25T14:28:21.846Z,9.72
2018-01-25T14:30:49.382Z,9.65
2018-01-25T14:33:16.971Z,9.56
2018-01-25T14:35:44.578Z,9.44
2018-01-25T14:38:12.118Z,9.31
2018-01-25T14:40:39.674Z,9.21
2018-01-25T14:43:07.257Z,9.12
2018-01-25T14:45:34.802Z,9.08
2018-01-25T14:48:02.339Z,9.03
2018-01-25T14:50:29.914Z,9.00
2018-01-25T14:52:57.444Z,8.94
2018-01-25T14:55:24.985Z,8.93
2018-01-25T14:57:52.525Z,8.84
2018-01-25T15:00:20.062Z,8.87
2018-01-25T15:02:47.741Z,8.82
2018-01-25T15:05:15.282Z,8.83
2018-01-25T15:07:42.857Z,8.82
2018-01-25T15:10:10.402Z,8.82
2018-01-25T15:12:37.995Z,8.79
2018-01-25T15:15:05.549Z,8.80
2018-01-25T15:17:33.106Z,8.78
2018-01-25T15:20:00.642Z,8.82
2018-01-25T15:22:28.178Z,8.90
2018-01-25T15:25:01.458Z,8.88
2018-01-25T15:27:33.859Z,8.82
2018-01-25T15:30:01.611Z,8.79
2018-01-25T15:32:29.145Z,8.77
2018-01-25T15:34:56.685Z,8.72
2018-01-25T15:37:24.222Z,8.65
2018-01-25T15:39:51.771Z,8.66
2018-01-25T15:42:19.311Z,8.66
2018-01-25T15:44:46.892Z,8.60
2018-01-25T15:47:14.452Z,8.55
2018-01-25T15:49:42.031Z,8.53
2018-01-25T15:52:09.602Z,8.56
2018-01-25T15:54:37.194Z,8.65
2018-01-25T15:57:04.741Z,8.74
2018-01-25T15:59:32.282Z,8.82
2018-01-25T16:01:59.823Z,8.78
2018-01-25T16:04:27.395Z,8.71
2018-01-25T16:06:54.989Z,8.68
2018-01-25T16:09:22.575Z,8.61
2018-01-25T16:11:50.185Z,8.55
2018-01-25T16:14:18.122Z,8.59
2018-01-25T16:16:45.663Z,8.65
2018-01-25T16:19:13.277Z,8.60
2018-01-25T16:21:40.818Z,8.63
2018-01-25T16:24:08.373Z,8.62
2018-01-25T16:26:35.954Z,8.61
2018-01-25T16:29:03.487Z,8.63
2018-01-25T16:31:31.062Z,8.61
2018-01-25T16:33:58.752Z,8.59
2018-01-25T16:36:26.286Z,8.52
2018-01-25T16:38:53.822Z,8.55
2018-01-25T16:41:21.365Z,8.54
2018-01-25T16:43:48.946Z,8.53
2018-01-25T16:46:16.510Z,8.52
2018-01-25T16:48:44.096Z,8.51
2018-01-25T16:51:11.671Z,8.50
2018-01-25T16:53:39.229Z,8.47
2018-01-25T16:56:06.868Z,8.47
2018-01-25T16:58:34.453Z,8.47
2018-01-25T17:01:02.113Z,8.45
2018-01-25T17:03:29.665Z,8.44
2018-01-25T17:05:57.206Z,8.45
2018-01-25T17:08:24.845Z,8.50
2018-01-25T17:10:52.396Z,8.48
2018-01-25T17:13:19.993Z,8.42
2018-01-25T17:15:47.548Z,8.43
2018-01-25T17:18:15.134Z,8.38
2018-01-25T17:20:42.717Z,8.37
2018-01-25T17:23:10.266Z,8.38
2018-01-25T17:25:37.811Z,8.35
2018-01-25T17:28:05.385Z,8.40
2018-01-25T17:30:32.934Z,8.35
2018-01-25T17:33:00.483Z,8.32
2018-01-25T17:35:28.082Z,8.38
2018-01-25T17:37:55.733Z,8.30
2018-01-25T17:40:23.282Z,8.29
2018-01-25T17:42:50.827Z,8.31
2018-01-25T17:45:18.410Z,8.28
2018-01-25T17:47:46.862Z,8.26
2018-01-25T17:50:14.402Z,8.29
2018-01-25T17:52:41.958Z,8.27
2018-01-25T17:55:09.570Z,8.27
2018-01-25T17:57:37.155Z,8.27
2018-01-25T18:00:04.702Z,8.27
2018-01-25T18:02:32.371Z,8.26
2018-01-25T18:05:00.031Z,8.27
2018-01-25T18:07:27.571Z,8.27
2018-01-25T18:09:55.148Z,8.31
2018-01-25T18:12:22.711Z,8.32
2018-01-25T18:14:50.246Z,8.36
2018-01-25T18:17:17.794Z,8.40
2018-01-25T18:19:45.334Z,8.54
2018-01-25T18:22:12.874Z,8.60
2018-01-25T18:24:40.482Z,8.54
2018-01-25T18:27:08.990Z,8.53
2018-01-25T18:29:36.550Z,8.47
2018-01-25T18:32:04.109Z,8.41
2018-01-25T18:34:31.693Z,8.44
2018-01-25T18:36:59.233Z,8.42
2018-01-25T18:39:26.786Z,8.42
2018-01-25T18:41:54.472Z,8.39
2018-01-25T18:44:22.122Z,8.40
2018-01-25T18:46:49.725Z,8.41
2018-01-25T18:49:17.310Z,8.42
2018-01-25T18:51:44.886Z,8.51
2018-01-25T18:54:12.476Z,8.49
2018-01-25T18:56:41.979Z,8.52
2018-01-25T18:59:09.522Z,8.53
2018-01-25T19:01:37.063Z,8.53
2018-01-25T19:04:04.654Z,8.57
2018-01-25T19:06:32.242Z,8.57
2018-01-25T19:09:00.043Z,8.58
2018-01-25T19:11:27.607Z,8.59
2018-01-25T19:13:55.153Z,8.62
2018-01-25T19:16:22.728Z,8.61
2018-01-25T19:18:50.426Z,8.63
2018-01-25T19:21:18.302Z,8.64
2018-01-25T19:23:45.979Z,8.67
2018-01-25T19:26:13.529Z,8.69
2018-01-25T19:28:41.078Z,8.71
2018-01-25T19:31:08.624Z,8.72
2018-01-25T19:33:36.228Z,8.71
2018-01-25T19:36:03.795Z,8.70
2018-01-25T19:38:31.426Z,8.69
2018-01-25T19:40:59.161Z,8.69
2018-01-25T19:43:26.718Z,8.74
2018-01-25T19:45:54.382Z,8.78
2018-01-25T19:48:21.946Z,8.79
2018-01-25T19:50:49.530Z,8.76
2018-01-25T19:53:17.173Z,8.83
2018-01-25T19:55:44.698Z,8.85
2018-01-25T19:58:12.288Z,8.82
2018-01-25T20:00:39.879Z,8.84
2018-01-25T20:03:07.462Z,8.97
2018-01-25T20:05:35.016Z,8.94
2018-01-25T20:08:02.602Z,9.09
2018-01-25T20:10:30.153Z,9.04
2018-01-25T20:12:57.750Z,9.02
2018-01-25T20:15:25.298Z,9.07
2018-01-25T20:17:52.846Z,9.14
2018-01-25T20:20:20.394Z,9.16
2018-01-25T20:22:47.943Z,9.03
2018-01-25T20:25:15.556Z,8.98
2018-01-25T20:27:43.168Z,8.97
2018-01-25T20:30:10.822Z,8.89
2018-01-25T20:32:38.372Z,9.00
2018-01-25T20:35:05.927Z,8.91
2018-01-25T20:37:33.477Z,8.86
2018-01-25T20:40:01.046Z,8.81
2018-01-25T20:42:28.630Z,8.84
2018-01-25T20:44:56.279Z,8.84
2018-01-25T20:47:23.940Z,8.85
2018-01-25T20:49:51.599Z,8.89
2018-01-25T20:52:19.263Z,8.94
2018-01-25T20:54:46.922Z,8.94
2018-01-25T20:57:14.485Z,8.88
2018-01-25T20:59:42.026Z,8.89
2018-01-25T21:02:09.574Z,8.84
2018-01-25T21:04:37.132Z,8.81
2018-01-25T21:07:04.676Z,8.80
2018-01-25T21:09:32.223Z,8.79
2018-01-25T21:11:59.766Z,8.73
2018-01-25T21:14:27.309Z,8.68
2018-01-25T21:16:54.857Z,8.69
2018-01-25T21:19:22.455Z,8.67
2018-01-25T21:21:50.005Z,8.63
2018-01-25T21:24:17.621Z,8.58
2018-01-25T21:26:45.170Z,8.59
2018-01-25T21:29:12.722Z,8.57
2018-01-25T21:31:40.314Z,8.53
2018-01-25T21:34:08.817Z,8.52
2018-01-25T21:36:36.365Z,8.55
2018-01-25T21:39:03.915Z,8.58
2018-01-25T21:41:31.504Z,8.60
2018-01-25T21:43:59.054Z,8.57
2018-01-25T21:46:26.606Z,8.53
2018-01-25T21:48:54.251Z,8.56
2018-01-25T21:51:21.809Z,8.52
2018-01-25T21:53:49.407Z,8.50
2018-01-25T21:56:17.062Z,8.54
2018-01-25T21:58:44.625Z,8.50
2018-01-25T22:01:12.190Z,8.50
2018-01-25T22:03:39.782Z,8.54
2018-01-25T22:06:07.410Z,8.53
2018-01-25T22:08:34.958Z,8.50
2018-01-25T22:11:02.534Z,8.50
2018-01-25T22:13:30.090Z,8.49
2018-01-25T22:15:57.642Z,8.51
2018-01-25T22:18:25.209Z,8.55
2018-01-25T22:20:52.758Z,8.55
2018-01-25T22:23:20.309Z,8.51
2018-01-25T22:25:47.895Z,8.72
2018-01-25T22:28:15.443Z,8.66
2018-01-25T22:30:43.034Z,8.54
2018-01-25T22:33:10.582Z,8.85
2018-01-25T22:35:38.165Z,8.70
2018-01-25T22:38:05.809Z,8.74
2018-01-25T22:40:33.385Z,8.64
2018-01-25T22:43:01.024Z,8.68
2018-01-25T22:45:28.614Z,8.56
2018-01-25T22:47:56.161Z,8.53
2018-01-25T22:50:23.750Z,8.48
2018-01-25T22:52:51.293Z,8.46
2018-01-25T22:55:18.893Z,8.84
2018-01-25T22:57:46.488Z,8.87
2018-01-25T23:00:25.937Z,8.69
2018-01-25T23:02:53.530Z,8.62
2018-01-25T23:05:21.132Z,8.56
2018-01-25T23:07:48.703Z,8.53
2018-01-25T23:10:16.250Z,8.50
2018-01-25T23:12:43.858Z,8.47
2018-01-25T23:15:11.491Z,8.47
2018-01-25T23:17:39.073Z,8.45
2018-01-25T23:20:06.667Z,8.47
2018-01-25T23:22:34.218Z,8.73
2018-01-25T23:25:01.753Z,8.77
2018-01-25T23:27:29.298Z,8.62
2018-01-25T23:29:56.832Z,8.57
2018-01-25T23:32:24.364Z,8.60
2018-01-25T23:34:51.894Z,8.58
2018-01-25T23:37:20.080Z,8.47
2018-01-25T23:39:47.701Z,8.37
2018-01-25T23:42:15.277Z,8.34
2018-01-25T23:44:42.864Z,8.30
2018-01-25T23:47:10.402Z,8.26
2018-01-25T23:49:37.954Z,8.27
2018-01-25T23:52:05.498Z,8.25
2018-01-25T23:54:33.044Z,8.20
2018-01-25T23:57:00.590Z,8.22
2018-01-25T23:59:28.138Z,8.22
